Time;durP1;ratioP1;P1;durP2;ratioP2;P2;SDS_P1;SDS_P2;PMS_P1;PMS_P2;Temp;Humidity;BMP_temperature;BMP_pressure;BME280_temperature;BME280_humidity;BME280_pressure;Samples;Min_cycle;Max_cycle;Signal;HPM_P1;HPM_P2
2021/09/18 00:04:57;;;;;;;17.90;16.00;;;25.50;57.60;;;;;;4736441;55;21532;-32
2021/09/18 00:09:57;;;;;;;18.02;16.15;;;25.50;57.60;;;;;;4736123;55;21068;-34
2021/09/18 00:14:58;;;;;;;16.98;15.27;;;25.50;57.50;;;;;;4731318;59;21041;-33
2021/09/18 00:20:01;;;;;;;17.33;15.52;;;25.50;57.50;;;;;;4739495;55;21044;-32
2021/09/18 00:25:02;;;;;;;18.05;15.98;;;25.50;57.50;;;;;;4734724;55;21492;-31
2021/09/18 00:30:04;;;;;;;17.50;15.70;;;25.50;57.50;;;;;;4731288;58;21033;-33
2021/09/18 00:35:08;;;;;;;18.10;15.90;;;25.50;57.40;;;;;;4737405;54;21065;-35
2021/09/18 00:40:12;;;;;;;17.40;15.60;;;25.50;57.40;;;;;;4731228;59;21065;-33
2021/09/18 00:45:13;;;;;;;18.35;16.20;;;25.50;57.40;;;;;;4758810;54;21024;-32
2021/09/18 00:50:13;;;;;;;16.70;15.00;;;25.40;57.30;;;;;;4825609;54;21025;-35
2021/09/18 00:55:14;;;;;;;16.50;14.82;;;25.50;57.40;;;;;;4739009;55;21055;-29
2021/09/18 01:00:16;;;;;;;16.60;14.90;;;25.50;57.40;;;;;;4734720;54;21004;-30
2021/09/18 01:05:17;;;;;;;17.00;15.18;;;25.50;57.30;;;;;;4760543;54;20989;-29
2021/09/18 01:10:18;;;;;;;16.85;15.07;;;25.50;57.30;;;;;;4759743;55;21017;-30
2021/09/18 01:15:18;;;;;;;16.42;14.77;;;25.50;57.30;;;;;;4794490;55;21021;-31
2021/09/18 01:20:19;;;;;;;16.27;14.65;;;25.50;57.30;;;;;;4776545;54;21117;-30
2021/09/18 01:25:20;;;;;;;15.90;14.30;;;25.50;57.30;;;;;;4731441;58;21018;-32
2021/09/18 01:30:24;;;;;;;16.00;14.32;;;25.50;57.30;;;;;;4738154;55;21018;-30
2021/09/18 01:35:25;;;;;;;16.50;14.70;;;25.50;57.30;;;;;;4748637;54;21033;-34
2021/09/18 01:40:29;;;;;;;15.38;13.88;;;25.40;57.20;;;;;;4739229;54;21045;-32
2021/09/18 01:45:31;;;;;;;16.10;14.40;;;25.40;57.20;;;;;;4832867;54;21006;-33
2021/09/18 01:50:57;;;;;;;14.75;13.32;;;25.40;57.20;;;;;;4741549;55;21053;-32
2021/09/18 01:55:58;;;;;;;14.40;13.00;;;25.50;57.20;;;;;;4744699;54;21587;-30
2021/09/18 02:01:01;;;;;;;15.77;14.23;;;25.40;57.20;;;;;;4734836;55;21481;-30
2021/09/18 02:06:03;;;;;;;15.25;13.75;;;25.40;57.10;;;;;;4749937;55;21480;-31
2021/09/18 02:11:04;;;;;;;15.40;13.55;;;25.40;57.10;;;;;;4739228;54;21025;-32
2021/09/18 02:16:05;;;;;;;15.43;13.90;;;25.40;57.10;;;;;;4732370;59;21048;-32
2021/09/18 02:21:06;;;;;;;14.63;13.13;;;25.40;57.10;;;;;;4742203;54;21009;-30
2021/09/18 02:26:06;;;;;;;14.45;13.05;;;25.40;57.10;;;;;;4750285;54;21036;-31
2021/09/18 02:31:07;;;;;;;13.57;12.27;;;25.40;57.10;;;;;;4748247;55;22228;-34
2021/09/18 02:36:08;;;;;;;15.25;13.50;;;25.40;57.10;;;;;;4748618;55;21009;-32
2021/09/18 02:41:09;;;;;;;14.40;12.93;;;25.40;57.20;;;;;;4758149;55;21072;-30
2021/09/18 02:46:10;;;;;;;14.10;12.70;;;25.40;57.10;;;;;;4732669;55;21053;-31
2021/09/18 02:51:10;;;;;;;13.40;12.10;;;25.40;57.10;;;;;;4783245;55;21453;-33
2021/09/18 02:56:11;;;;;;;13.80;12.35;;;25.40;57.10;;;;;;4797773;55;21013;-32
2021/09/18 03:01:12;;;;;;;13.70;12.40;;;25.40;57.10;;;;;;4751905;55;21064;-34
2021/09/18 03:06:13;;;;;;;13.65;12.25;;;25.30;57.00;;;;;;4749123;55;21025;-33
2021/09/18 03:11:14;;;;;;;14.30;12.80;;;25.40;57.00;;;;;;4731401;56;22311;-29
2021/09/18 03:16:15;;;;;;;13.95;12.52;;;25.30;56.90;;;;;;4739698;55;22111;-34
2021/09/18 03:21:16;;;;;;;13.25;11.85;;;25.30;57.00;;;;;;4731290;58;21032;-32
2021/09/18 03:26:17;;;;;;;12.65;11.38;;;25.30;56.90;;;;;;4752947;54;20986;-32
2021/09/18 03:31:18;;;;;;;13.15;11.85;;;25.30;57.20;;;;;;4771350;55;21515;-29
2021/09/18 03:36:19;;;;;;;13.60;12.10;;;25.30;57.00;;;;;;4732410;54;21037;-35
2021/09/18 03:41:19;;;;;;;13.68;12.05;;;25.30;56.90;;;;;;4750443;54;21515;-32
2021/09/18 03:46:20;;;;;;;13.95;12.55;;;25.30;56.90;;;;;;4730912;55;21001;-30
2021/09/18 03:51:21;;;;;;;13.05;11.77;;;25.30;56.90;;;;;;4781533;55;21496;-31
2021/09/18 03:56:23;;;;;;;13.18;11.88;;;25.30;56.90;;;;;;4778069;54;21009;-30
2021/09/18 04:01:24;;;;;;;12.27;11.07;;;25.30;56.90;;;;;;4750236;55;21073;-32
2021/09/18 04:06:26;;;;;;;12.90;11.60;;;25.30;57.00;;;;;;4733058;55;21014;-33
2021/09/18 04:11:27;;;;;;;13.07;11.77;;;25.30;56.90;;;;;;4731545;59;22219;-33
2021/09/18 04:16:28;;;;;;;12.77;11.45;;;25.30;57.00;;;;;;4739781;55;21026;-33
2021/09/18 04:21:29;;;;;;;13.23;11.82;;;25.30;57.00;;;;;;4757774;54;21052;-27
2021/09/18 04:26:30;;;;;;;13.02;11.73;;;25.30;57.00;;;;;;4731217;59;21014;-33
2021/09/18 04:31:31;;;;;;;14.43;11.55;;;25.30;57.00;;;;;;4734896;54;21021;-34
2021/09/18 04:36:32;;;;;;;11.57;10.38;;;25.30;57.00;;;;;;4731309;56;21495;-32
2021/09/18 04:41:33;;;;;;;13.45;11.80;;;25.30;57.00;;;;;;4748595;55;21065;-33
2021/09/18 04:46:34;;;;;;;12.98;11.68;;;25.20;56.90;;;;;;4741189;54;20993;-32
2021/09/18 04:51:35;;;;;;;12.15;11.05;;;25.30;56.90;;;;;;4751213;55;21523;-32
2021/09/18 04:56:36;;;;;;;12.73;11.43;;;25.20;56.80;;;;;;4731539;58;21464;-31
2021/09/18 05:01:36;;;;;;;14.70;11.30;;;25.20;56.90;;;;;;4742856;55;21009;-30
2021/09/18 05:06:37;;;;;;;12.55;11.32;;;25.20;56.80;;;;;;4754902;55;21122;-31
2021/09/18 05:11:40;;;;;;;12.63;11.38;;;25.20;56.80;;;;;;4746561;54;21069;-32
2021/09/18 05:16:40;;;;;;;13.15;10.93;;;25.20;56.80;;;;;;4792917;55;22433;-33
2021/09/18 05:21:41;;;;;;;11.75;10.52;;;25.20;56.80;;;;;;4757253;55;21013;-31
2021/09/18 05:26:42;;;;;;;13.02;11.25;;;25.20;56.80;;;;;;4737119;55;21097;-31
2021/09/18 05:31:43;;;;;;;13.62;11.20;;;25.20;56.70;;;;;;4766570;54;21677;-32
2021/09/18 05:36:44;;;;;;;12.52;11.23;;;25.20;56.70;;;;;;4731717;59;21001;-30
2021/09/18 05:41:44;;;;;;;13.65;11.68;;;25.20;56.70;;;;;;4752268;55;21057;-29
2021/09/18 05:46:45;;;;;;;12.45;11.15;;;25.20;56.70;;;;;;4744626;55;21037;-31
2021/09/18 05:51:46;;;;;;;12.90;11.52;;;25.20;56.70;;;;;;4735378;55;21049;-29
2021/09/18 05:56:47;;;;;;;12.68;11.38;;;25.20;56.70;;;;;;4772721;55;21499;-31
2021/09/18 06:01:49;;;;;;;14.50;11.85;;;25.20;56.70;;;;;;4770368;55;21128;-31
2021/09/18 06:06:50;;;;;;;12.73;11.32;;;25.20;56.70;;;;;;4731530;58;21009;-28
2021/09/18 06:11:51;;;;;;;14.65;12.02;;;25.20;56.70;;;;;;4754475;54;21024;-31
2021/09/18 06:16:53;;;;;;;13.77;11.23;;;25.20;56.70;;;;;;4741964;55;21024;-28
2021/09/18 06:21:53;;;;;;;13.48;12.07;;;25.10;56.70;;;;;;4731712;59;21073;-33
2021/09/18 06:26:54;;;;;;;12.93;11.60;;;25.20;56.70;;;;;;4776206;54;21061;-30
2021/09/18 06:31:55;;;;;;;13.55;11.57;;;25.20;56.70;;;;;;4731699;55;21029;-31
2021/09/18 06:36:57;;;;;;;13.05;11.68;;;25.10;56.60;;;;;;4781013;55;21012;-27
2021/09/18 06:41:58;;;;;;;14.23;12.70;;;25.10;56.60;;;;;;4764982;55;21013;-32
2021/09/18 06:46:59;;;;;;;14.35;12.32;;;25.10;56.70;;;;;;4767267;55;21060;-31
2021/09/18 06:52:00;;;;;;;15.60;12.80;;;25.10;56.60;;;;;;4733375;55;21555;-28
2021/09/18 06:57:01;;;;;;;14.80;13.18;;;25.10;56.70;;;;;;4776079;55;21073;-31
2021/09/18 07:02:02;;;;;;;14.80;13.02;;;25.10;56.60;;;;;;4731572;58;21021;-35
2021/09/18 07:07:03;;;;;;;17.00;13.10;;;25.10;56.60;;;;;;4734319;55;21094;-31
2021/09/18 07:12:04;;;;;;;16.35;12.98;;;25.10;56.60;;;;;;4731394;58;21021;-31
2021/09/18 07:17:05;;;;;;;17.30;13.80;;;25.10;56.60;;;;;;4730818;58;21081;-32
2021/09/18 07:22:09;;;;;;;16.35;13.70;;;25.10;56.60;;;;;;4759679;55;21061;-32
2021/09/18 07:27:09;;;;;;;15.60;13.82;;;25.10;56.60;;;;;;4739780;54;21073;-33
2021/09/18 07:32:11;;;;;;;16.85;14.23;;;25.10;56.60;;;;;;4752438;55;21017;-29
2021/09/18 07:37:12;;;;;;;18.12;14.55;;;25.10;56.60;;;;;;4743110;54;21032;-32
2021/09/18 07:42:13;;;;;;;17.48;15.02;;;25.10;56.60;;;;;;4746212;54;21094;-31
2021/09/18 07:47:14;;;;;;;17.25;15.27;;;25.10;56.60;;;;;;4737868;55;21518;-29
2021/09/18 07:52:16;;;;;;;16.92;14.80;;;25.10;56.50;;;;;;4731364;58;21369;-31
2021/09/18 07:57:17;;;;;;;19.67;15.43;;;25.10;56.50;;;;;;4746219;54;21456;-32
2021/09/18 08:02:18;;;;;;;19.80;15.65;;;25.10;56.60;;;;;;4781525;54;21124;-30
2021/09/18 08:07:21;;;;;;;19.95;15.68;;;25.10;56.60;;;;;;4740842;55;21540;-28
2021/09/18 08:12:22;;;;;;;19.48;16.00;;;25.10;56.60;;;;;;4734570;54;22133;-33
2021/09/18 08:17:23;;;;;;;20.52;16.35;;;25.10;56.50;;;;;;4755297;54;21061;-30
2021/09/18 08:22:24;;;;;;;24.30;17.42;;;25.00;56.50;;;;;;4773952;54;22251;-31
2021/09/18 08:27:25;;;;;;;21.52;17.17;;;25.00;56.60;;;;;;4741948;54;21025;-34
2021/09/18 08:32:26;;;;;;;23.67;17.50;;;25.00;56.50;;;;;;4733613;55;21106;-29
2021/09/18 08:37:27;;;;;;;22.70;17.92;;;25.00;56.50;;;;;;4732367;58;21100;-34
2021/09/18 08:42:28;;;;;;;21.73;17.70;;;25.00;56.50;;;;;;4732226;59;22035;-32
2021/09/18 08:47:30;;;;;;;23.02;18.00;;;25.00;56.50;;;;;;4779094;55;21390;-31
2021/09/18 08:52:31;;;;;;;23.98;18.25;;;25.00;56.50;;;;;;4747453;55;21112;-33
2021/09/18 08:57:32;;;;;;;23.38;18.27;;;25.00;56.50;;;;;;4739484;55;21021;-33
2021/09/18 09:02:34;;;;;;;21.67;18.20;;;25.00;56.40;;;;;;4755211;55;21037;-32
2021/09/18 09:07:34;;;;;;;24.33;18.45;;;25.00;56.50;;;;;;4748060;54;21662;-33
2021/09/18 09:12:37;;;;;;;22.00;19.48;;;25.00;57.10;;;;;;4731093;55;21048;-31
2021/09/18 09:17:38;;;;;;;26.15;19.65;;;25.00;56.40;;;;;;4733397;54;21061;-35
2021/09/18 09:22:47;;;;;;;28.58;21.05;;;25.00;56.40;;;;;;4732052;56;21146;-31
2021/09/18 09:27:47;;;;;;;26.75;20.92;;;25.00;56.40;;;;;;4764585;54;21463;-34
2021/09/18 09:32:48;;;;;;;26.42;21.42;;;25.00;56.40;;;;;;4730778;59;21041;-31
2021/09/18 09:37:54;;;;;;;26.80;21.45;;;25.00;56.30;;;;;;4770011;55;20998;-30
2021/09/18 09:42:56;;;;;;;26.40;20.70;;;25.00;56.30;;;;;;4734771;54;21063;-31
2021/09/18 09:48:07;;;;;;;27.08;22.05;;;25.00;56.30;;;;;;4751511;54;21049;-32
2021/09/18 09:53:28;;;;;;;28.65;22.08;;;25.10;56.30;;;;;;4738523;54;21010;-33
2021/09/18 09:59:00;;;;;;;27.70;22.05;;;25.00;56.20;;;;;;4731120;58;21029;-30
2021/09/18 10:04:02;;;;;;;30.85;23.17;;;25.00;56.20;;;;;;4756721;54;21106;-30
2021/09/18 10:09:03;;;;;;;30.95;23.05;;;25.10;56.20;;;;;;4760767;54;21511;-30
2021/09/18 10:14:05;;;;;;;27.52;22.13;;;25.00;56.20;;;;;;4766056;54;21041;-30
2021/09/18 10:19:09;;;;;;;28.52;22.87;;;25.00;56.10;;;;;;4779196;54;21183;-32
2021/09/18 10:24:11;;;;;;;30.45;24.35;;;25.10;56.20;;;;;;4745175;55;22170;-33
2021/09/18 10:29:31;;;;;;;31.42;24.60;;;25.00;56.10;;;;;;4750915;54;21138;-31
2021/09/18 10:34:32;;;;;;;32.90;25.37;;;25.10;56.20;;;;;;4778716;54;21546;-34
2021/09/18 10:39:33;;;;;;;31.87;25.48;;;25.10;56.10;;;;;;4742013;54;21131;-33
2021/09/18 10:44:51;;;;;;;30.08;24.92;;;25.00;56.00;;;;;;4731091;59;21069;-33
2021/09/18 10:49:52;;;;;;;31.05;25.10;;;25.10;56.10;;;;;;4767723;54;21093;-35
2021/09/18 10:56:01;;;;;;;30.45;24.17;;;25.00;56.00;;;;;;4740893;54;21550;-31
2021/09/18 11:01:02;;;;;;;32.05;25.27;;;25.00;56.00;;;;;;4768120;54;21034;-30
2021/09/18 11:06:04;;;;;;;31.77;25.40;;;25.00;55.90;;;;;;4741395;55;21029;-31
2021/09/18 11:11:12;;;;;;;29.48;24.63;;;25.00;55.90;;;;;;4740645;54;21061;-30
2021/09/18 11:16:36;;;;;;;29.27;25.42;;;25.00;55.90;;;;;;4782008;54;21562;-31
2021/09/18 11:21:46;;;;;;;32.13;25.55;;;25.10;55.90;;;;;;4731934;54;20993;-30
2021/09/18 11:26:58;;;;;;;28.98;25.17;;;25.00;55.90;;;;;;4731283;55;21045;-29
2021/09/18 11:32:19;;;;;;;32.10;26.45;;;25.00;55.80;;;;;;4731335;54;20998;-34
2021/09/18 11:37:23;;;;;;;31.52;26.70;;;25.00;55.80;;;;;;4774313;55;22397;-35
2021/09/18 11:42:45;;;;;;;30.05;26.00;;;25.00;55.80;;;;;;4769911;54;21507;-33
2021/09/18 11:47:50;;;;;;;29.95;25.37;;;25.00;55.80;;;;;;4734641;55;21202;-34
2021/09/18 11:52:53;;;;;;;33.75;26.00;;;25.00;55.80;;;;;;4753619;54;21025;-34
2021/09/18 11:58:54;;;;;;;32.90;26.85;;;25.00;55.80;;;;;;4730999;58;21421;-32
2021/09/18 12:03:55;;;;;;;30.95;25.98;;;25.00;55.70;;;;;;4732332;54;21009;-26
2021/09/18 12:08:56;;;;;;;34.05;26.67;;;25.00;55.70;;;;;;4732187;55;20997;-34
2021/09/18 12:13:57;;;;;;;31.65;26.92;;;25.00;55.70;;;;;;4732562;55;21061;-33
2021/09/18 12:19:00;;;;;;;31.27;26.20;;;25.00;55.70;;;;;;4758895;55;21056;-30
2021/09/18 12:24:08;;;;;;;33.15;26.65;;;25.00;55.80;;;;;;4731447;59;21127;-31
2021/09/18 12:29:15;;;;;;;30.98;25.92;;;25.00;55.70;;;;;;4769948;54;21328;-33
2021/09/18 12:34:18;;;;;;;32.42;26.27;;;25.10;55.70;;;;;;4778526;54;21037;-35
2021/09/18 12:39:26;;;;;;;32.60;26.67;;;25.00;55.70;;;;;;4778277;54;21057;-34
2021/09/18 12:44:34;;;;;;;30.17;25.73;;;25.00;55.60;;;;;;4759261;54;21515;-34
2021/09/18 12:49:37;;;;;;;31.10;26.95;;;25.00;55.60;;;;;;4767978;54;21045;-33
2021/09/18 12:54:42;;;;;;;30.08;26.23;;;25.00;55.60;;;;;;4730821;55;21033;-32
2021/09/18 12:59:45;;;;;;;30.65;26.05;;;25.00;55.60;;;;;;4739725;54;21074;-30
2021/09/18 13:04:46;;;;;;;30.75;25.30;;;25.00;55.60;;;;;;4776148;54;21033;-33
2021/09/18 13:09:56;;;;;;;30.62;25.85;;;25.00;55.60;;;;;;4740791;55;21044;-28
2021/09/18 13:14:58;;;;;;;30.95;25.48;;;25.00;55.60;;;;;;4759570;54;21093;-32
2021/09/18 13:20:05;;;;;;;32.30;26.15;;;25.00;55.50;;;;;;4752226;54;21025;-30
2021/09/18 13:25:11;;;;;;;29.08;25.92;;;25.00;55.50;;;;;;4753853;54;22226;-34
2021/09/18 13:30:13;;;;;;;29.58;26.05;;;25.00;55.50;;;;;;4736274;54;21006;-33
2021/09/18 13:35:13;;;;;;;31.23;26.23;;;25.00;55.50;;;;;;4765860;55;21013;-33
2021/09/18 13:40:14;;;;;;;30.40;25.30;;;25.00;55.40;;;;;;4733471;55;21483;-32
2021/09/18 13:45:15;;;;;;;29.30;25.48;;;25.00;55.40;;;;;;4741133;55;21013;-30
2021/09/18 13:50:16;;;;;;;27.87;24.02;;;25.00;55.40;;;;;;4731477;59;21010;-34
2021/09/18 13:55:17;;;;;;;28.83;24.50;;;25.00;55.40;;;;;;4754805;55;20997;-33
2021/09/18 14:00:18;;;;;;;28.00;24.25;;;25.00;55.30;;;;;;4745637;54;21010;-35
2021/09/18 14:05:18;;;;;;;30.62;24.20;;;25.00;55.40;;;;;;4731324;54;21020;-32
2021/09/18 14:10:20;;;;;;;29.87;24.42;;;25.00;55.40;;;;;;4747896;55;21008;-29
2021/09/18 14:15:21;;;;;;;27.62;24.45;;;25.00;55.30;;;;;;4741830;55;21558;-31
2021/09/18 14:20:21;;;;;;;29.77;24.80;;;25.00;55.30;;;;;;4801963;54;21017;-33
2021/09/18 14:25:23;;;;;;;30.52;25.85;;;25.00;55.30;;;;;;4754124;55;21017;-33
2021/09/18 14:30:24;;;;;;;27.02;24.10;;;25.00;55.90;;;;;;4737530;55;21077;-32
2021/09/18 14:35:25;;;;;;;28.75;24.27;;;25.00;55.20;;;;;;4731398;59;21041;-31
2021/09/18 14:40:26;;;;;;;28.50;24.05;;;25.00;55.20;;;;;;4739327;54;21037;-32
2021/09/18 14:45:27;;;;;;;29.08;24.92;;;25.00;55.20;;;;;;4732739;55;21089;-32
2021/09/18 14:50:29;;;;;;;28.55;24.60;;;25.00;55.20;;;;;;4777022;55;21029;-29
2021/09/18 14:55:30;;;;;;;26.37;23.38;;;25.00;55.10;;;;;;4766680;55;21476;-32
2021/09/18 15:00:31;;;;;;;28.20;23.77;;;25.00;55.10;;;;;;4731853;55;21128;-32
2021/09/18 15:05:32;;;;;;;27.75;22.92;;;25.00;55.10;;;;;;4756388;55;21463;-32
2021/09/18 15:10:33;;;;;;;27.42;23.25;;;25.00;55.10;;;;;;4731846;59;21004;-31
2021/09/18 15:15:34;;;;;;;26.60;23.02;;;25.00;55.00;;;;;;4738422;55;21085;-30
2021/09/18 15:20:35;;;;;;;26.40;22.55;;;25.00;55.20;;;;;;4790246;55;21013;-32
2021/09/18 15:25:37;;;;;;;25.90;23.17;;;25.00;55.00;;;;;;4740856;54;21068;-31
2021/09/18 15:30:38;;;;;;;27.27;23.15;;;25.00;55.00;;;;;;4744369;55;21088;-30
2021/09/18 15:35:39;;;;;;;25.48;22.52;;;25.00;55.00;;;;;;4773185;55;21511;-25
2021/09/18 15:40:45;;;;;;;27.90;23.23;;;25.00;55.00;;;;;;4748002;54;21029;-27
2021/09/18 15:45:46;;;;;;;25.23;21.85;;;25.00;54.90;;;;;;4798020;54;21060;-30
2021/09/18 15:50:47;;;;;;;25.33;22.60;;;25.00;54.90;;;;;;4731606;59;21020;-32
2021/09/18 15:55:48;;;;;;;25.05;22.42;;;25.00;54.80;;;;;;4757664;55;21072;-34
2021/09/18 16:00:49;;;;;;;24.65;22.05;;;25.10;54.90;;;;;;4742265;55;21020;-34
2021/09/18 16:05:49;;;;;;;25.58;22.20;;;25.00;54.80;;;;;;4778706;54;21120;-33
2021/09/18 16:10:50;;;;;;;24.33;21.67;;;25.00;54.80;;;;;;4733046;55;21025;-34
2021/09/18 16:15:52;;;;;;;23.90;20.92;;;25.00;54.80;;;;;;4730934;55;21535;-33
2021/09/18 16:20:53;;;;;;;23.67;21.15;;;25.00;54.80;;;;;;4784090;54;21072;-31
2021/09/18 16:25:53;;;;;;;24.92;21.02;;;25.00;54.80;;;;;;4764987;55;21041;-30
2021/09/18 16:30:54;;;;;;;23.52;21.02;;;25.00;54.80;;;;;;4731080;56;21080;-33
2021/09/18 16:35:55;;;;;;;24.95;21.45;;;25.10;54.80;;;;;;4733918;55;21075;-34
2021/09/18 16:40:56;;;;;;;23.40;20.90;;;25.00;54.70;;;;;;4740470;55;21104;-33
2021/09/18 16:45:57;;;;;;;24.48;21.65;;;25.00;54.70;;;;;;4777151;55;21005;-34
2021/09/18 16:50:59;;;;;;;22.70;19.77;;;25.00;54.70;;;;;;4785575;55;21087;-31
2021/09/18 16:55:59;;;;;;;24.20;20.92;;;25.00;54.80;;;;;;4748195;54;21554;-33
2021/09/18 17:01:01;;;;;;;22.45;20.05;;;25.00;54.70;;;;;;4734400;55;21013;-32
2021/09/18 17:06:02;;;;;;;22.52;20.15;;;25.00;54.70;;;;;;4733707;54;21037;-32
2021/09/18 17:11:02;;;;;;;25.23;20.55;;;25.10;55.40;;;;;;4731618;59;21026;-31
2021/09/18 17:16:04;;;;;;;23.42;20.30;;;25.00;54.70;;;;;;4742791;55;21097;-31
2021/09/18 17:21:05;;;;;;;22.48;20.08;;;25.00;54.60;;;;;;4742260;54;21001;-31
2021/09/18 17:26:06;;;;;;;22.13;19.45;;;25.10;54.70;;;;;;4752292;55;21005;-31
2021/09/18 17:31:07;;;;;;;22.67;20.10;;;25.10;54.70;;;;;;4748755;54;21097;-29
2021/09/18 17:36:08;;;;;;;25.75;20.70;;;25.10;54.70;;;;;;4733820;55;21438;-30
2021/09/18 17:41:09;;;;;;;22.83;20.42;;;25.00;54.60;;;;;;4798184;55;21495;-32
2021/09/18 17:46:11;;;;;;;23.98;21.25;;;25.10;54.60;;;;;;4731060;59;21080;-33
2021/09/18 17:51:12;;;;;;;21.50;18.98;;;25.10;54.70;;;;;;4731259;59;21515;-33
2021/09/18 17:56:13;;;;;;;22.52;19.62;;;25.10;54.70;;;;;;4783741;54;21072;-29
2021/09/18 18:01:14;;;;;;;21.95;19.12;;;25.10;54.70;;;;;;4734133;54;21001;-31
2021/09/18 18:06:16;;;;;;;21.70;18.90;;;25.10;54.60;;;;;;4735378;55;21005;-33
2021/09/18 18:11:16;;;;;;;22.60;19.42;;;25.10;54.60;;;;;;4733009;54;21037;-33
2021/09/18 18:16:17;;;;;;;21.67;19.12;;;25.10;54.60;;;;;;4732836;55;22133;-30
2021/09/18 18:21:18;;;;;;;22.37;19.35;;;25.10;54.60;;;;;;4746896;55;21089;-33
2021/09/18 18:26:19;;;;;;;21.45;19.17;;;25.00;54.50;;;;;;4751063;55;21079;-34
2021/09/18 18:31:20;;;;;;;23.42;19.15;;;25.10;54.60;;;;;;4733849;55;21033;-33
2021/09/18 18:36:20;;;;;;;21.42;18.50;;;25.00;54.60;;;;;;4748801;55;21116;-32
2021/09/18 18:41:21;;;;;;;21.20;18.75;;;25.00;54.50;;;;;;4734034;55;21012;-33
2021/09/18 18:46:23;;;;;;;20.62;17.60;;;25.00;54.50;;;;;;4731961;55;21025;-30
2021/09/18 18:51:24;;;;;;;20.77;17.98;;;25.00;54.50;;;;;;4742187;55;21499;-32
2021/09/18 18:56:25;;;;;;;22.73;19.02;;;25.00;54.60;;;;;;4752450;55;21002;-33
2021/09/18 19:01:26;;;;;;;20.80;18.25;;;25.00;54.50;;;;;;4743456;55;21069;-34
2021/09/18 19:06:26;;;;;;;19.92;17.77;;;25.00;54.50;;;;;;4732895;55;21024;-33
2021/09/18 19:11:27;;;;;;;20.92;18.48;;;25.00;54.50;;;;;;4731340;55;21028;-27
2021/09/18 19:16:29;;;;;;;19.62;17.60;;;25.00;54.60;;;;;;4730417;59;21032;-32
2021/09/18 19:21:29;;;;;;;20.12;17.92;;;25.00;54.50;;;;;;4749963;55;21567;-31
2021/09/18 19:26:30;;;;;;;20.73;17.98;;;25.00;54.50;;;;;;4735651;55;21061;-31
2021/09/18 19:31:32;;;;;;;23.65;17.27;;;25.00;54.50;;;;;;4737241;55;21515;-32
2021/09/18 19:36:33;;;;;;;18.65;16.67;;;25.00;54.50;;;;;;4740113;55;21535;-31
2021/09/18 19:41:34;;;;;;;20.15;16.65;;;25.00;54.40;;;;;;4730841;59;21139;-28
2021/09/18 19:46:37;;;;;;;18.73;16.73;;;25.00;54.40;;;;;;4731294;59;21484;-33
2021/09/18 19:51:38;;;;;;;19.40;16.67;;;25.00;54.50;;;;;;4735122;55;21496;-33
2021/09/18 19:56:39;;;;;;;19.95;17.77;;;25.00;54.50;;;;;;4735301;55;20998;-34
2021/09/18 20:01:40;;;;;;;20.12;17.62;;;25.00;54.40;;;;;;4730998;59;21006;-33
2021/09/18 20:06:41;;;;;;;19.80;17.05;;;25.00;54.40;;;;;;4760766;54;21001;-35
2021/09/18 20:11:42;;;;;;;18.83;16.83;;;25.00;54.40;;;;;;4731689;59;21041;-33
2021/09/18 20:16:43;;;;;;;18.15;16.25;;;25.00;54.40;;;;;;4771777;55;21519;-33
2021/09/18 20:21:44;;;;;;;19.23;17.02;;;25.00;54.40;;;;;;4761548;54;21026;-35
2021/09/18 20:26:44;;;;;;;19.00;16.98;;;25.00;54.40;;;;;;4731457;59;21479;-33
2021/09/18 20:31:45;;;;;;;17.87;15.60;;;25.00;54.40;;;;;;4731296;59;21118;-32
2021/09/18 20:36:46;;;;;;;17.42;15.63;;;25.00;54.40;;;;;;4764187;54;21026;-33
2021/09/18 20:41:47;;;;;;;17.60;15.75;;;25.00;54.40;;;;;;4743906;55;21009;-28
2021/09/18 20:46:49;;;;;;;17.75;15.85;;;25.00;54.40;;;;;;4737470;54;21511;-33
2021/09/18 20:51:50;;;;;;;18.17;15.88;;;25.00;54.40;;;;;;4731682;59;21554;-31
2021/09/18 20:56:51;;;;;;;17.48;15.50;;;25.00;54.40;;;;;;4731795;55;21040;-34
2021/09/18 21:07:38;;;;;;;15.85;14.25;;;25.00;54.40;;;;;;4731623;59;21125;-32
2021/09/18 21:12:39;;;;;;;17.20;15.40;;;25.00;54.40;;;;;;4736442;55;21089;-31
2021/09/18 21:17:41;;;;;;;17.08;15.10;;;25.00;54.50;;;;;;4730220;55;21041;-28
2021/09/18 21:22:42;;;;;;;16.67;14.32;;;25.00;54.40;;;;;;4766603;54;21603;-36
2021/09/18 21:27:43;;;;;;;16.33;14.18;;;25.00;54.40;;;;;;4736675;54;20997;-31
2021/09/18 21:32:44;;;;;;;15.55;13.95;;;25.00;54.40;;;;;;4740775;55;21053;-32
2021/09/18 21:37:44;;;;;;;15.85;13.93;;;25.00;54.40;;;;;;4743686;55;21079;-32
2021/09/18 21:42:45;;;;;;;14.52;13.13;;;25.00;54.40;;;;;;4768520;54;21479;-31
2021/09/18 21:47:46;;;;;;;15.32;13.73;;;25.00;54.50;;;;;;4765410;55;21077;-33
2021/09/18 21:52:47;;;;;;;14.77;13.27;;;25.00;55.10;;;;;;4731331;59;21491;-32
2021/09/18 21:57:48;;;;;;;14.20;12.70;;;25.00;54.50;;;;;;4742836;54;21021;-28
2021/09/18 22:02:49;;;;;;;14.18;12.77;;;25.00;54.50;;;;;;4741667;55;21022;-33
2021/09/18 22:07:50;;;;;;;15.23;13.65;;;25.00;54.50;;;;;;4770039;55;21017;-33
2021/09/18 22:12:54;;;;;;;14.52;12.93;;;25.00;54.50;;;;;;4762814;55;21069;-28
2021/09/18 22:17:55;;;;;;;14.27;12.73;;;25.00;54.50;;;;;;4731125;58;21563;-31
2021/09/18 22:22:55;;;;;;;14.35;12.82;;;25.00;54.50;;;;;;4744104;55;20997;-32
2021/09/18 22:27:56;;;;;;;13.55;12.18;;;25.00;54.60;;;;;;4731139;59;21013;-33
2021/09/18 22:32:57;;;;;;;13.80;12.30;;;25.00;54.50;;;;;;4742538;55;21021;-31
2021/09/18 22:37:58;;;;;;;14.27;12.77;;;25.00;54.50;;;;;;4751810;55;21024;-33
2021/09/18 22:43:00;;;;;;;14.15;12.75;;;25.00;54.50;;;;;;4741899;55;21146;-28
2021/09/18 22:48:00;;;;;;;15.73;13.77;;;25.00;54.60;;;;;;4731235;59;21060;-34
2021/09/18 22:53:01;;;;;;;14.20;12.37;;;25.00;54.60;;;;;;4731467;59;21019;-32
2021/09/18 22:58:03;;;;;;;14.07;12.37;;;25.00;54.60;;;;;;4731096;58;21005;-29
2021/09/18 23:03:04;;;;;;;13.48;11.70;;;25.00;54.60;;;;;;4751939;54;21057;-34
2021/09/18 23:08:06;;;;;;;13.15;11.75;;;25.00;54.60;;;;;;4794172;54;21045;-33
2021/09/18 23:13:08;;;;;;;13.07;11.77;;;25.00;54.60;;;;;;4738304;54;21400;-33
2021/09/18 23:18:12;;;;;;;12.93;11.63;;;24.90;54.60;;;;;;4764944;55;21057;-34
2021/09/18 23:23:14;;;;;;;12.85;11.57;;;25.00;54.60;;;;;;4733724;54;21024;-34
2021/09/18 23:28:20;;;;;;;13.50;11.80;;;25.00;54.70;;;;;;4775498;54;20986;-34
2021/09/18 23:33:23;;;;;;;12.75;11.40;;;24.90;54.60;;;;;;4732875;54;21021;-35
2021/09/18 23:38:23;;;;;;;13.07;11.63;;;24.90;54.60;;;;;;4756045;55;21428;-33
2021/09/18 23:43:27;;;;;;;12.68;11.35;;;25.00;54.70;;;;;;4745809;54;21045;-35
2021/09/18 23:48:27;;;;;;;12.52;11.23;;;24.90;54.70;;;;;;4732071;59;20993;-34
2021/09/18 23:53:28;;;;;;;12.25;11.05;;;25.00;54.70;;;;;;4744424;55;21089;-31
2021/09/18 23:58:29;;;;;;;11.98;10.77;;;24.90;54.70;;;;;;4756962;54;21021;-31
